Zeus — V2OR — position and weather

sailwx.info

Track history (hours):
 
Tides and Currents Weather Stations Pressure Air Temp Water Temp Dewpoint Dewpoint Depression Visibility Wind Speed Wind Dir Waves Ship Positions

Zeus

Last reported at 2014-Aug-20 01:25 UTC. Time now 2014-Aug-20 10:49 UTC.
Position N 37°02' E 012°57'.

Length 90 m; draft 4.9 m.

Type: Cargo ship. MMSI: 304011025.

Date/timePositionNaut miles runAvg speedWind from/ knotsBaromVisibWave heightAir tempDewpointWater temp
2014-Aug-20 01:25N 37°02' E 012°57'8 8.9
2014-Aug-20 00:33N 36°60' E 013°06'19 9.0
2014-Aug-19 22:27N 36°55' E 013°29'8 8.8
2014-Aug-19 21:33N 36°53' E 013°39'8 8.6
2014-Aug-19 20:33N 36°51' E 013°49'9 8.6
2014-Aug-19 19:33N 36°49' E 013°59'9 8.7
2014-Aug-19 18:33N 36°46' E 014°10'9 8.7
2014-Aug-19 17:33N 36°44' E 014°20'9 8.7
2014-Aug-19 16:33N 36°41' E 014°31'13 9.2
2014-Aug-19 15:10N 36°38' E 014°46'7 8.8
2014-Aug-19 14:26N 36°37' E 014°54'  
2014-Aug-17 03:24N 37°55' E 024°33'228 9.5
2014-Aug-16 03:25N 40°48' E 027°46'13 9.8
2014-Aug-16 02:04N 40°49' E 028°04'40 8.7
2014-Aug-15 21:31N 40°45' E 028°56'9 9.3
2014-Aug-15 20:33N 40°45' E 029°07'10 9.7
2014-Aug-15 19:32N 40°44' E 029°20'7 0.3
2014-Aug-14 16:31N 40°45' E 029°30'8 8.4
2014-Aug-14 15:33N 40°43' E 029°19'10 9.7
2014-Aug-14 14:33N 40°45' E 029°07'1110.5
2014-Aug-14 13:30N 40°53' E 028°57'35 2.0
2014-Aug-13 20:08N 41°20' E 029°25'2 4.0
2014-Aug-13 19:33N 41°20' E 029°28'  
Track history (hours):
 
Tides and Currents Weather Stations Pressure Air Temp Water Temp Dewpoint Dewpoint Depression Visibility Wind Speed Wind Dir Waves Ship Positions

Zeus

Last reported at 2014-Aug-20 01:25 UTC. Time now 2014-Aug-20 10:49 UTC.
Position N 37°02' E 012°57'.

Length 90 m; draft 4.9 m.

Type: Cargo ship. MMSI: 304011025.

Date/timePositionNaut miles runAvg speedWind from/ knotsBaromVisibWave heightAir tempDewpointWater temp
2014-Aug-20 01:25N 37°02' E 012°57'8 8.9
2014-Aug-20 00:33N 36°60' E 013°06'19 9.0
2014-Aug-19 22:27N 36°55' E 013°29'8 8.8
2014-Aug-19 21:33N 36°53' E 013°39'8 8.6
2014-Aug-19 20:33N 36°51' E 013°49'9 8.6
2014-Aug-19 19:33N 36°49' E 013°59'9 8.7
2014-Aug-19 18:33N 36°46' E 014°10'9 8.7
2014-Aug-19 17:33N 36°44' E 014°20'9 8.7
2014-Aug-19 16:33N 36°41' E 014°31'13 9.2
2014-Aug-19 15:10N 36°38' E 014°46'7 8.8
2014-Aug-19 14:26N 36°37' E 014°54'  
2014-Aug-17 03:24N 37°55' E 024°33'228 9.5
2014-Aug-16 03:25N 40°48' E 027°46'13 9.8
2014-Aug-16 02:04N 40°49' E 028°04'40 8.7
2014-Aug-15 21:31N 40°45' E 028°56'9 9.3
2014-Aug-15 20:33N 40°45' E 029°07'10 9.7
2014-Aug-15 19:32N 40°44' E 029°20'7 0.3
2014-Aug-14 16:31N 40°45' E 029°30'8 8.4
2014-Aug-14 15:33N 40°43' E 029°19'10 9.7
2014-Aug-14 14:33N 40°45' E 029°07'1110.5
2014-Aug-14 13:30N 40°53' E 028°57'35 2.0
2014-Aug-13 20:08N 41°20' E 029°25'2 4.0
2014-Aug-13 19:33N 41°20' E 029°28'  

Dump ship's entire track history